Shullsburg, Wisconsin
Current Conditions -  °F | °C
As of 12:15 PM on Thursday 23 Oct 2014 (Local Time) from KPVB Reporting Station
Overcast Overcast  
Wind Chill: 42°   Ceiling: 1800
Heat Index: 47°   Visibility: 10mi
Dew Point: 45°   Wind: 10mph
Humidity: 94%   Direction: 160°SSE
Pressure: 30.1"   Gusts: NA
Location:  42.57°N, 90.23°W
Report Text: KPVB 231715Z AUTO 16009KT 10SM OVC018 08/07 A3010 RMK AO1 T00810072
Loading
Personal Weather Stations






























Interactive Weather Map
Tropical Storm Tracking
New forecast layout! Learn more

10-Day Weather Forecast

Advertisements
Track Severe Weather on mobile